sensor_id;sensor_type;location;lat;lon;timestamp;P1;durP1;ratioP1;P2;durP2;ratioP2
2259;SDS011;333;48.800;9.530;2023-02-15T00:00:04;35.43;;;23.77;;
2259;SDS011;333;48.800;9.530;2023-02-15T00:02:33;37.33;;;23.00;;
2259;SDS011;333;48.800;9.530;2023-02-15T00:05:02;33.70;;;23.07;;
2259;SDS011;333;48.800;9.530;2023-02-15T00:07:29;33.63;;;22.17;;
2259;SDS011;333;48.800;9.530;2023-02-15T00:09:57;28.90;;;21.50;;
2259;SDS011;333;48.800;9.530;2023-02-15T00:12:24;34.67;;;22.27;;
2259;SDS011;333;48.800;9.530;2023-02-15T00:14:52;38.00;;;23.27;;
2259;SDS011;333;48.800;9.530;2023-02-15T00:17:20;34.40;;;23.53;;
2259;SDS011;333;48.800;9.530;2023-02-15T00:19:47;35.10;;;21.97;;
2259;SDS011;333;48.800;9.530;2023-02-15T00:22:15;30.37;;;23.37;;
2259;SDS011;333;48.800;9.530;2023-02-15T00:24:43;28.87;;;21.37;;
2259;SDS011;333;48.800;9.530;2023-02-15T00:27:11;28.00;;;21.53;;
2259;SDS011;333;48.800;9.530;2023-02-15T00:29:38;39.20;;;21.80;;
2259;SDS011;333;48.800;9.530;2023-02-15T00:32:05;30.90;;;19.97;;
2259;SDS011;333;48.800;9.530;2023-02-15T00:34:33;31.67;;;21.03;;
2259;SDS011;333;48.800;9.530;2023-02-15T00:37:00;25.70;;;19.70;;
2259;SDS011;333;48.800;9.530;2023-02-15T00:39:28;30.57;;;21.20;;
2259;SDS011;333;48.800;9.530;2023-02-15T00:41:56;38.17;;;22.17;;
2259;SDS011;333;48.800;9.530;2023-02-15T00:44:23;29.27;;;21.70;;
2259;SDS011;333;48.800;9.530;2023-02-15T00:46:51;29.90;;;20.67;;
2259;SDS011;333;48.800;9.530;2023-02-15T00:49:18;29.27;;;21.20;;
2259;SDS011;333;48.800;9.530;2023-02-15T00:51:45;32.47;;;22.23;;
2259;SDS011;333;48.800;9.530;2023-02-15T00:54:12;29.90;;;21.63;;
2259;SDS011;333;48.800;9.530;2023-02-15T00:56:41;27.67;;;19.83;;
2259;SDS011;333;48.800;9.530;2023-02-15T00:59:08;34.90;;;21.60;;
2259;SDS011;333;48.800;9.530;2023-02-15T01:01:36;34.93;;;22.53;;
2259;SDS011;333;48.800;9.530;2023-02-15T01:04:03;31.00;;;21.40;;
2259;SDS011;333;48.800;9.530;2023-02-15T01:06:30;33.60;;;21.17;;
2259;SDS011;333;48.800;9.530;2023-02-15T01:08:58;34.53;;;21.50;;
2259;SDS011;333;48.800;9.530;2023-02-15T01:11:25;36.60;;;22.40;;
2259;SDS011;333;48.800;9.530;2023-02-15T01:13:55;29.13;;;20.90;;
2259;SDS011;333;48.800;9.530;2023-02-15T01:16:23;32.37;;;21.13;;
2259;SDS011;333;48.800;9.530;2023-02-15T01:18:51;33.37;;;20.43;;
2259;SDS011;333;48.800;9.530;2023-02-15T01:21:20;30.60;;;20.90;;
2259;SDS011;333;48.800;9.530;2023-02-15T01:23:48;36.07;;;22.53;;
2259;SDS011;333;48.800;9.530;2023-02-15T01:26:16;29.03;;;20.53;;
2259;SDS011;333;48.800;9.530;2023-02-15T01:28:44;29.97;;;19.80;;
2259;SDS011;333;48.800;9.530;2023-02-15T01:31:13;31.90;;;22.40;;
2259;SDS011;333;48.800;9.530;2023-02-15T01:33:41;32.40;;;20.93;;
2259;SDS011;333;48.800;9.530;2023-02-15T01:36:08;33.67;;;22.73;;
2259;SDS011;333;48.800;9.530;2023-02-15T01:38:36;34.70;;;21.67;;
2259;SDS011;333;48.800;9.530;2023-02-15T01:41:04;34.17;;;22.40;;
2259;SDS011;333;48.800;9.530;2023-02-15T01:43:50;31.63;;;22.83;;
2259;SDS011;333;48.800;9.530;2023-02-15T01:46:19;25.70;;;20.73;;
2259;SDS011;333;48.800;9.530;2023-02-15T01:48:47;30.97;;;20.40;;
2259;SDS011;333;48.800;9.530;2023-02-15T01:51:18;31.80;;;19.77;;
2259;SDS011;333;48.800;9.530;2023-02-15T01:53:47;31.50;;;21.53;;
2259;SDS011;333;48.800;9.530;2023-02-15T01:56:16;33.10;;;21.73;;
2259;SDS011;333;48.800;9.530;2023-02-15T01:58:45;30.33;;;20.73;;
2259;SDS011;333;48.800;9.530;2023-02-15T02:01:14;28.33;;;20.33;;
2259;SDS011;333;48.800;9.530;2023-02-15T02:03:45;32.10;;;20.47;;
2259;SDS011;333;48.800;9.530;2023-02-15T02:06:15;36.23;;;21.67;;
2259;SDS011;333;48.800;9.530;2023-02-15T02:08:42;30.60;;;19.73;;
2259;SDS011;333;48.800;9.530;2023-02-15T02:11:11;29.97;;;20.30;;
2259;SDS011;333;48.800;9.530;2023-02-15T02:13:38;33.03;;;20.83;;
2259;SDS011;333;48.800;9.530;2023-02-15T02:16:08;32.87;;;20.30;;
2259;SDS011;333;48.800;9.530;2023-02-15T02:18:41;25.20;;;19.60;;
2259;SDS011;333;48.800;9.530;2023-02-15T02:24:00;27.43;;;19.10;;
2259;SDS011;333;48.800;9.530;2023-02-15T02:26:44;36.67;;;22.20;;
2259;SDS011;333;48.800;9.530;2023-02-15T02:35:01;35.77;;;21.77;;
2259;SDS011;333;48.800;9.530;2023-02-15T02:37:33;32.33;;;19.33;;
2259;SDS011;333;48.800;9.530;2023-02-15T02:40:03;28.00;;;20.00;;
2259;SDS011;333;48.800;9.530;2023-02-15T02:42:34;35.30;;;22.07;;
2259;SDS011;333;48.800;9.530;2023-02-15T02:45:04;29.50;;;20.77;;
2259;SDS011;333;48.800;9.530;2023-02-15T02:47:33;34.87;;;21.33;;
2259;SDS011;333;48.800;9.530;2023-02-15T02:50:06;31.50;;;21.50;;
2259;SDS011;333;48.800;9.530;2023-02-15T02:52:37;28.07;;;18.60;;
2259;SDS011;333;48.800;9.530;2023-02-15T02:55:06;35.40;;;20.70;;
2259;SDS011;333;48.800;9.530;2023-02-15T02:57:34;32.53;;;20.80;;
2259;SDS011;333;48.800;9.530;2023-02-15T03:00:02;31.10;;;19.67;;
2259;SDS011;333;48.800;9.530;2023-02-15T03:02:31;34.20;;;19.33;;
2259;SDS011;333;48.800;9.530;2023-02-15T03:04:59;34.87;;;20.03;;
2259;SDS011;333;48.800;9.530;2023-02-15T03:07:31;32.30;;;21.80;;
2259;SDS011;333;48.800;9.530;2023-02-15T03:09:59;34.73;;;20.50;;
2259;SDS011;333;48.800;9.530;2023-02-15T03:12:27;33.17;;;19.93;;
2259;SDS011;333;48.800;9.530;2023-02-15T03:14:56;38.20;;;20.53;;
2259;SDS011;333;48.800;9.530;2023-02-15T03:17:25;33.33;;;20.77;;
2259;SDS011;333;48.800;9.530;2023-02-15T03:19:54;34.13;;;23.07;;
2259;SDS011;333;48.800;9.530;2023-02-15T03:22:23;36.97;;;21.57;;
2259;SDS011;333;48.800;9.530;2023-02-15T03:24:55;27.30;;;21.17;;
2259;SDS011;333;48.800;9.530;2023-02-15T03:27:24;30.87;;;19.83;;
2259;SDS011;333;48.800;9.530;2023-02-15T03:29:53;28.50;;;20.80;;
2259;SDS011;333;48.800;9.530;2023-02-15T03:32:23;29.80;;;19.30;;
2259;SDS011;333;48.800;9.530;2023-02-15T03:34:51;31.97;;;19.60;;
2259;SDS011;333;48.800;9.530;2023-02-15T03:37:20;29.73;;;18.50;;
2259;SDS011;333;48.800;9.530;2023-02-15T03:39:51;32.07;;;20.87;;
2259;SDS011;333;48.800;9.530;2023-02-15T03:42:22;31.60;;;20.10;;
2259;SDS011;333;48.800;9.530;2023-02-15T03:44:54;30.30;;;20.37;;
2259;SDS011;333;48.800;9.530;2023-02-15T03:47:23;29.70;;;21.77;;
2259;SDS011;333;48.800;9.530;2023-02-15T03:49:54;31.83;;;19.67;;
2259;SDS011;333;48.800;9.530;2023-02-15T03:52:23;29.90;;;20.20;;
2259;SDS011;333;48.800;9.530;2023-02-15T03:54:52;31.07;;;20.60;;
2259;SDS011;333;48.800;9.530;2023-02-15T03:57:20;28.43;;;19.10;;
2259;SDS011;333;48.800;9.530;2023-02-15T04:00:09;33.33;;;21.10;;
2259;SDS011;333;48.800;9.530;2023-02-15T04:03:05;27.03;;;18.20;;
2259;SDS011;333;48.800;9.530;2023-02-15T04:05:34;26.30;;;20.77;;
2259;SDS011;333;48.800;9.530;2023-02-15T04:08:02;30.40;;;20.90;;
2259;SDS011;333;48.800;9.530;2023-02-15T04:10:29;26.80;;;19.73;;
2259;SDS011;333;48.800;9.530;2023-02-15T04:13:14;27.07;;;19.23;;
2259;SDS011;333;48.800;9.530;2023-02-15T04:15:42;26.70;;;19.53;;
2259;SDS011;333;48.800;9.530;2023-02-15T04:18:27;31.83;;;21.83;;
2259;SDS011;333;48.800;9.530;2023-02-15T04:21:12;30.37;;;20.07;;
2259;SDS011;333;48.800;9.530;2023-02-15T04:23:57;33.57;;;22.87;;
2259;SDS011;333;48.800;9.530;2023-02-15T04:26:42;32.27;;;23.90;;
2259;SDS011;333;48.800;9.530;2023-02-15T04:29:09;30.60;;;21.83;;
2259;SDS011;333;48.800;9.530;2023-02-15T04:31:38;31.17;;;23.10;;
2259;SDS011;333;48.800;9.530;2023-02-15T04:34:07;34.10;;;21.43;;
2259;SDS011;333;48.800;9.530;2023-02-15T04:36:35;31.77;;;21.13;;
2259;SDS011;333;48.800;9.530;2023-02-15T04:39:02;34.37;;;22.17;;
2259;SDS011;333;48.800;9.530;2023-02-15T04:53:46;30.10;;;20.30;;
2259;SDS011;333;48.800;9.530;2023-02-15T04:56:13;29.47;;;21.33;;
2259;SDS011;333;48.800;9.530;2023-02-15T04:58:40;34.43;;;21.20;;
2259;SDS011;333;48.800;9.530;2023-02-15T05:01:08;23.97;;;18.57;;
2259;SDS011;333;48.800;9.530;2023-02-15T05:03:35;29.90;;;19.20;;
2259;SDS011;333;48.800;9.530;2023-02-15T05:06:03;30.30;;;21.03;;
2259;SDS011;333;48.800;9.530;2023-02-15T05:08:31;28.90;;;20.43;;
2259;SDS011;333;48.800;9.530;2023-02-15T05:10:59;32.23;;;20.20;;
2259;SDS011;333;48.800;9.530;2023-02-15T05:13:27;32.60;;;22.43;;
2259;SDS011;333;48.800;9.530;2023-02-15T05:15:54;38.00;;;22.97;;
2259;SDS011;333;48.800;9.530;2023-02-15T05:18:21;35.27;;;21.33;;
2259;SDS011;333;48.800;9.530;2023-02-15T05:20:48;29.47;;;20.43;;
2259;SDS011;333;48.800;9.530;2023-02-15T05:23:16;28.63;;;19.63;;
2259;SDS011;333;48.800;9.530;2023-02-15T05:25:46;27.77;;;20.83;;
2259;SDS011;333;48.800;9.530;2023-02-15T05:28:32;28.97;;;21.23;;
2259;SDS011;333;48.800;9.530;2023-02-15T05:31:03;30.67;;;19.27;;
2259;SDS011;333;48.800;9.530;2023-02-15T05:33:31;31.00;;;20.73;;
2259;SDS011;333;48.800;9.530;2023-02-15T05:35:58;32.30;;;21.90;;
2259;SDS011;333;48.800;9.530;2023-02-15T05:38:25;32.47;;;21.30;;
2259;SDS011;333;48.800;9.530;2023-02-15T05:40:52;28.57;;;18.90;;
2259;SDS011;333;48.800;9.530;2023-02-15T05:43:20;33.50;;;22.03;;
2259;SDS011;333;48.800;9.530;2023-02-15T05:45:49;26.13;;;20.03;;
2259;SDS011;333;48.800;9.530;2023-02-15T05:48:17;29.40;;;19.60;;
2259;SDS011;333;48.800;9.530;2023-02-15T05:50:45;29.37;;;19.43;;
2259;SDS011;333;48.800;9.530;2023-02-15T05:53:12;31.77;;;19.80;;
2259;SDS011;333;48.800;9.530;2023-02-15T05:55:41;31.27;;;20.67;;
2259;SDS011;333;48.800;9.530;2023-02-15T05:58:08;31.40;;;21.53;;
2259;SDS011;333;48.800;9.530;2023-02-15T06:00:35;29.70;;;19.37;;
2259;SDS011;333;48.800;9.530;2023-02-15T06:03:04;28.80;;;20.37;;
2259;SDS011;333;48.800;9.530;2023-02-15T06:05:31;31.50;;;21.40;;
2259;SDS011;333;48.800;9.530;2023-02-15T06:07:59;25.37;;;20.60;;
2259;SDS011;333;48.800;9.530;2023-02-15T06:10:26;29.97;;;20.50;;
2259;SDS011;333;48.800;9.530;2023-02-15T06:12:53;31.17;;;21.80;;
2259;SDS011;333;48.800;9.530;2023-02-15T06:15:20;32.67;;;22.30;;
2259;SDS011;333;48.800;9.530;2023-02-15T06:17:48;28.97;;;21.73;;
2259;SDS011;333;48.800;9.530;2023-02-15T06:20:17;31.10;;;20.47;;
2259;SDS011;333;48.800;9.530;2023-02-15T06:22:45;36.97;;;22.67;;
2259;SDS011;333;48.800;9.530;2023-02-15T06:25:13;32.83;;;20.80;;
2259;SDS011;333;48.800;9.530;2023-02-15T06:27:40;31.77;;;21.87;;
2259;SDS011;333;48.800;9.530;2023-02-15T06:30:09;28.80;;;21.03;;
2259;SDS011;333;48.800;9.530;2023-02-15T06:32:37;32.97;;;22.27;;
2259;SDS011;333;48.800;9.530;2023-02-15T06:35:05;29.50;;;20.87;;
2259;SDS011;333;48.800;9.530;2023-02-15T06:37:34;25.60;;;19.60;;
2259;SDS011;333;48.800;9.530;2023-02-15T06:40:01;30.63;;;20.67;;
2259;SDS011;333;48.800;9.530;2023-02-15T06:42:29;38.10;;;22.10;;
2259;SDS011;333;48.800;9.530;2023-02-15T06:44:57;30.10;;;20.50;;
2259;SDS011;333;48.800;9.530;2023-02-15T06:47:25;30.20;;;19.60;;
2259;SDS011;333;48.800;9.530;2023-02-15T06:49:53;34.90;;;24.00;;
2259;SDS011;333;48.800;9.530;2023-02-15T06:52:20;32.17;;;22.23;;
2259;SDS011;333;48.800;9.530;2023-02-15T06:54:49;29.67;;;21.53;;
2259;SDS011;333;48.800;9.530;2023-02-15T06:57:16;44.83;;;23.93;;
2259;SDS011;333;48.800;9.530;2023-02-15T06:59:43;37.07;;;24.53;;
2259;SDS011;333;48.800;9.530;2023-02-15T07:02:11;34.47;;;23.90;;
2259;SDS011;333;48.800;9.530;2023-02-15T07:04:41;33.93;;;24.17;;
2259;SDS011;333;48.800;9.530;2023-02-15T07:07:08;29.00;;;22.93;;
2259;SDS011;333;48.800;9.530;2023-02-15T07:09:36;37.03;;;26.47;;
2259;SDS011;333;48.800;9.530;2023-02-15T07:12:05;40.23;;;27.83;;
2259;SDS011;333;48.800;9.530;2023-02-15T07:14:50;39.80;;;24.47;;
2259;SDS011;333;48.800;9.530;2023-02-15T07:17:17;38.33;;;24.33;;
2259;SDS011;333;48.800;9.530;2023-02-15T07:19:45;38.30;;;24.93;;
2259;SDS011;333;48.800;9.530;2023-02-15T07:22:12;35.73;;;24.07;;
2259;SDS011;333;48.800;9.530;2023-02-15T07:24:39;37.10;;;24.67;;
2259;SDS011;333;48.800;9.530;2023-02-15T07:27:08;35.03;;;26.70;;
2259;SDS011;333;48.800;9.530;2023-02-15T07:29:35;37.63;;;27.03;;
2259;SDS011;333;48.800;9.530;2023-02-15T07:32:02;36.43;;;27.77;;
2259;SDS011;333;48.800;9.530;2023-02-15T07:34:30;46.43;;;31.20;;
2259;SDS011;333;48.800;9.530;2023-02-15T07:36:57;51.00;;;33.33;;
2259;SDS011;333;48.800;9.530;2023-02-15T07:39:24;37.63;;;28.80;;
2259;SDS011;333;48.800;9.530;2023-02-15T07:41:51;37.50;;;27.37;;
2259;SDS011;333;48.800;9.530;2023-02-15T07:44:20;40.03;;;27.53;;
2259;SDS011;333;48.800;9.530;2023-02-15T07:46:47;40.07;;;27.77;;
2259;SDS011;333;48.800;9.530;2023-02-15T07:49:15;45.90;;;27.00;;
2259;SDS011;333;48.800;9.530;2023-02-15T07:51:42;38.20;;;25.90;;
2259;SDS011;333;48.800;9.530;2023-02-15T07:54:10;44.73;;;27.60;;
2259;SDS011;333;48.800;9.530;2023-02-15T07:56:38;35.20;;;27.03;;
2259;SDS011;333;48.800;9.530;2023-02-15T07:59:05;34.97;;;27.30;;
2259;SDS011;333;48.800;9.530;2023-02-15T08:01:35;38.07;;;30.00;;
2259;SDS011;333;48.800;9.530;2023-02-15T08:04:03;40.00;;;26.90;;
2259;SDS011;333;48.800;9.530;2023-02-15T08:06:31;34.33;;;26.90;;
2259;SDS011;333;48.800;9.530;2023-02-15T08:08:59;33.03;;;25.13;;
2259;SDS011;333;48.800;9.530;2023-02-15T08:11:28;40.90;;;29.10;;
2259;SDS011;333;48.800;9.530;2023-02-15T08:13:58;37.20;;;28.10;;
2259;SDS011;333;48.800;9.530;2023-02-15T08:16:29;36.87;;;25.77;;
2259;SDS011;333;48.800;9.530;2023-02-15T08:18:59;38.73;;;28.47;;
2259;SDS011;333;48.800;9.530;2023-02-15T08:21:27;33.93;;;28.67;;
2259;SDS011;333;48.800;9.530;2023-02-15T08:23:55;40.00;;;30.83;;
2259;SDS011;333;48.800;9.530;2023-02-15T08:26:23;42.63;;;28.83;;
2259;SDS011;333;48.800;9.530;2023-02-15T08:28:50;44.70;;;31.40;;
2259;SDS011;333;48.800;9.530;2023-02-15T08:31:18;37.00;;;27.10;;
2259;SDS011;333;48.800;9.530;2023-02-15T08:33:47;36.90;;;26.80;;
2259;SDS011;333;48.800;9.530;2023-02-15T08:36:17;38.63;;;29.50;;
2259;SDS011;333;48.800;9.530;2023-02-15T08:38:45;41.00;;;29.23;;
2259;SDS011;333;48.800;9.530;2023-02-15T08:41:13;38.73;;;27.90;;
2259;SDS011;333;48.800;9.530;2023-02-15T08:43:42;43.93;;;29.87;;
2259;SDS011;333;48.800;9.530;2023-02-15T08:46:10;38.97;;;29.50;;
2259;SDS011;333;48.800;9.530;2023-02-15T08:48:38;37.43;;;30.10;;
2259;SDS011;333;48.800;9.530;2023-02-15T08:51:06;45.20;;;30.67;;
2259;SDS011;333;48.800;9.530;2023-02-15T08:53:37;44.53;;;31.40;;
2259;SDS011;333;48.800;9.530;2023-02-15T08:56:06;39.77;;;29.97;;
2259;SDS011;333;48.800;9.530;2023-02-15T08:58:34;44.80;;;30.33;;
2259;SDS011;333;48.800;9.530;2023-02-15T09:01:10;39.67;;;29.50;;
2259;SDS011;333;48.800;9.530;2023-02-15T09:03:37;42.40;;;27.27;;
2259;SDS011;333;48.800;9.530;2023-02-15T09:06:05;36.67;;;27.13;;
2259;SDS011;333;48.800;9.530;2023-02-15T09:08:32;36.73;;;29.50;;
2259;SDS011;333;48.800;9.530;2023-02-15T09:11:11;38.77;;;28.00;;
2259;SDS011;333;48.800;9.530;2023-02-15T09:13:38;35.20;;;25.90;;
2259;SDS011;333;48.800;9.530;2023-02-15T09:16:06;36.17;;;27.17;;
2259;SDS011;333;48.800;9.530;2023-02-15T09:18:37;40.53;;;28.83;;
2259;SDS011;333;48.800;9.530;2023-02-15T09:21:06;40.33;;;27.03;;
2259;SDS011;333;48.800;9.530;2023-02-15T09:23:34;31.60;;;26.30;;
2259;SDS011;333;48.800;9.530;2023-02-15T09:26:02;32.17;;;26.00;;
2259;SDS011;333;48.800;9.530;2023-02-15T09:28:33;34.57;;;26.77;;
2259;SDS011;333;48.800;9.530;2023-02-15T09:31:05;36.63;;;24.70;;
2259;SDS011;333;48.800;9.530;2023-02-15T09:33:32;32.83;;;25.30;;
2259;SDS011;333;48.800;9.530;2023-02-15T09:36:01;35.93;;;24.70;;
2259;SDS011;333;48.800;9.530;2023-02-15T09:38:28;34.13;;;25.17;;
2259;SDS011;333;48.800;9.530;2023-02-15T09:41:00;29.70;;;24.23;;
2259;SDS011;333;48.800;9.530;2023-02-15T09:43:34;28.57;;;22.27;;
2259;SDS011;333;48.800;9.530;2023-02-15T09:46:07;26.00;;;21.43;;
2259;SDS011;333;48.800;9.530;2023-02-15T09:48:38;28.53;;;21.70;;
2259;SDS011;333;48.800;9.530;2023-02-15T09:53:55;28.10;;;23.00;;
2259;SDS011;333;48.800;9.530;2023-02-15T09:56:28;29.40;;;20.03;;
2259;SDS011;333;48.800;9.530;2023-02-15T09:59:04;27.40;;;19.67;;
2259;SDS011;333;48.800;9.530;2023-02-15T10:01:34;27.57;;;19.13;;
2259;SDS011;333;48.800;9.530;2023-02-15T10:04:12;31.03;;;21.27;;
2259;SDS011;333;48.800;9.530;2023-02-15T10:06:42;22.00;;;18.90;;
2259;SDS011;333;48.800;9.530;2023-02-15T10:09:20;23.60;;;19.43;;
2259;SDS011;333;48.800;9.530;2023-02-15T10:11:57;23.73;;;17.87;;
2259;SDS011;333;48.800;9.530;2023-02-15T10:14:36;25.93;;;19.77;;
2259;SDS011;333;48.800;9.530;2023-02-15T10:17:10;22.03;;;18.17;;
2259;SDS011;333;48.800;9.530;2023-02-15T10:19:42;25.77;;;19.30;;
2259;SDS011;333;48.800;9.530;2023-02-15T10:22:16;24.80;;;18.33;;
2259;SDS011;333;48.800;9.530;2023-02-15T10:24:54;19.77;;;16.93;;
2259;SDS011;333;48.800;9.530;2023-02-15T10:27:22;21.47;;;16.77;;
2259;SDS011;333;48.800;9.530;2023-02-15T10:29:54;19.23;;;16.37;;
2259;SDS011;333;48.800;9.530;2023-02-15T10:32:26;22.57;;;17.80;;
2259;SDS011;333;48.800;9.530;2023-02-15T10:34:56;19.50;;;17.40;;
2259;SDS011;333;48.800;9.530;2023-02-15T10:37:35;21.87;;;16.30;;
2259;SDS011;333;48.800;9.530;2023-02-15T10:40:08;19.13;;;16.03;;
2259;SDS011;333;48.800;9.530;2023-02-15T10:42:40;21.00;;;17.27;;
2259;SDS011;333;48.800;9.530;2023-02-15T10:45:16;24.73;;;18.90;;
2259;SDS011;333;48.800;9.530;2023-02-15T10:50:34;20.17;;;16.93;;
2259;SDS011;333;48.800;9.530;2023-02-15T10:53:08;17.67;;;15.83;;
2259;SDS011;333;48.800;9.530;2023-02-15T10:55:40;19.20;;;16.03;;
2259;SDS011;333;48.800;9.530;2023-02-15T10:58:14;20.33;;;17.67;;
2259;SDS011;333;48.800;9.530;2023-02-15T11:00:45;18.63;;;16.73;;
2259;SDS011;333;48.800;9.530;2023-02-15T11:03:20;17.80;;;15.60;;
2259;SDS011;333;48.800;9.530;2023-02-15T11:05:52;19.10;;;15.53;;
2259;SDS011;333;48.800;9.530;2023-02-15T11:08:20;17.97;;;15.03;;
2259;SDS011;333;48.800;9.530;2023-02-15T11:10:51;19.27;;;16.57;;
2259;SDS011;333;48.800;9.530;2023-02-15T11:13:20;19.43;;;15.67;;
2259;SDS011;333;48.800;9.530;2023-02-15T11:15:51;19.77;;;16.07;;
2259;SDS011;333;48.800;9.530;2023-02-15T11:18:21;18.33;;;15.93;;
2259;SDS011;333;48.800;9.530;2023-02-15T11:20:52;20.40;;;16.90;;
2259;SDS011;333;48.800;9.530;2023-02-15T11:23:20;17.90;;;16.00;;
2259;SDS011;333;48.800;9.530;2023-02-15T11:25:52;16.23;;;14.53;;
2259;SDS011;333;48.800;9.530;2023-02-15T11:28:22;17.73;;;15.77;;
2259;SDS011;333;48.800;9.530;2023-02-15T11:30:53;20.77;;;15.67;;
2259;SDS011;333;48.800;9.530;2023-02-15T11:33:22;18.63;;;16.63;;
2259;SDS011;333;48.800;9.530;2023-02-15T11:35:53;20.20;;;16.03;;
2259;SDS011;333;48.800;9.530;2023-02-15T11:38:21;18.30;;;16.40;;
2259;SDS011;333;48.800;9.530;2023-02-15T11:40:51;16.40;;;14.70;;
2259;SDS011;333;48.800;9.530;2023-02-15T11:43:21;16.77;;;14.90;;
2259;SDS011;333;48.800;9.530;2023-02-15T11:45:52;16.37;;;14.67;;
2259;SDS011;333;48.800;9.530;2023-02-15T11:48:19;14.70;;;13.17;;
2259;SDS011;333;48.800;9.530;2023-02-15T11:50:47;16.47;;;14.77;;
2259;SDS011;333;48.800;9.530;2023-02-15T11:53:15;16.93;;;15.17;;
2259;SDS011;333;48.800;9.530;2023-02-15T11:55:43;18.57;;;15.73;;
2259;SDS011;333;48.800;9.530;2023-02-15T11:58:14;17.90;;;16.03;;
2259;SDS011;333;48.800;9.530;2023-02-15T12:00:44;18.00;;;16.07;;
2259;SDS011;333;48.800;9.530;2023-02-15T12:03:15;18.30;;;16.40;;
2259;SDS011;333;48.800;9.530;2023-02-15T12:05:44;17.13;;;15.27;;
2259;SDS011;333;48.800;9.530;2023-02-15T12:08:15;18.23;;;14.83;;
2259;SDS011;333;48.800;9.530;2023-02-15T12:10:44;17.37;;;15.67;;
2259;SDS011;333;48.800;9.530;2023-02-15T12:13:17;16.83;;;15.23;;
2259;SDS011;333;48.800;9.530;2023-02-15T12:15:45;16.97;;;15.20;;
2259;SDS011;333;48.800;9.530;2023-02-15T12:18:31;17.30;;;15.37;;
2259;SDS011;333;48.800;9.530;2023-02-15T12:21:02;16.43;;;14.77;;
2259;SDS011;333;48.800;9.530;2023-02-15T12:23:31;15.93;;;14.23;;
2259;SDS011;333;48.800;9.530;2023-02-15T12:25:58;18.20;;;14.70;;
2259;SDS011;333;48.800;9.530;2023-02-15T12:28:30;17.53;;;15.13;;
2259;SDS011;333;48.800;9.530;2023-02-15T12:30:58;16.17;;;14.47;;
2259;SDS011;333;48.800;9.530;2023-02-15T12:33:28;17.47;;;15.67;;
2259;SDS011;333;48.800;9.530;2023-02-15T12:35:57;16.30;;;14.70;;
2259;SDS011;333;48.800;9.530;2023-02-15T12:38:27;15.57;;;14.07;;
2259;SDS011;333;48.800;9.530;2023-02-15T12:40:58;15.10;;;13.57;;
2259;SDS011;333;48.800;9.530;2023-02-15T12:43:31;14.10;;;12.80;;
2259;SDS011;333;48.800;9.530;2023-02-15T12:46:18;14.87;;;13.50;;
2259;SDS011;333;48.800;9.530;2023-02-15T12:49:02;15.20;;;13.80;;
2259;SDS011;333;48.800;9.530;2023-02-15T12:51:42;14.30;;;12.80;;
2259;SDS011;333;48.800;9.530;2023-02-15T12:54:15;15.70;;;14.23;;
2259;SDS011;333;48.800;9.530;2023-02-15T12:56:43;15.97;;;14.07;;
2259;SDS011;333;48.800;9.530;2023-02-15T12:59:12;15.00;;;13.40;;
2259;SDS011;333;48.800;9.530;2023-02-15T13:01:40;16.77;;;15.07;;
2259;SDS011;333;48.800;9.530;2023-02-15T13:04:18;16.37;;;14.67;;
2259;SDS011;333;48.800;9.530;2023-02-15T13:06:48;16.30;;;14.53;;
2259;SDS011;333;48.800;9.530;2023-02-15T13:09:17;16.40;;;14.70;;
2259;SDS011;333;48.800;9.530;2023-02-15T13:11:46;15.30;;;13.80;;
2259;SDS011;333;48.800;9.530;2023-02-15T13:14:17;14.47;;;13.03;;
2259;SDS011;333;48.800;9.530;2023-02-15T13:16:46;17.10;;;13.90;;
2259;SDS011;333;48.800;9.530;2023-02-15T13:19:16;15.33;;;12.27;;
2259;SDS011;333;48.800;9.530;2023-02-15T13:21:44;12.30;;;11.10;;
2259;SDS011;333;48.800;9.530;2023-02-15T13:24:15;12.40;;;10.93;;
2259;SDS011;333;48.800;9.530;2023-02-15T13:26:44;12.27;;;11.07;;
2259;SDS011;333;48.800;9.530;2023-02-15T13:29:15;13.77;;;12.47;;
2259;SDS011;333;48.800;9.530;2023-02-15T13:31:44;14.23;;;10.53;;
2259;SDS011;333;48.800;9.530;2023-02-15T13:34:14;12.63;;;11.43;;
2259;SDS011;333;48.800;9.530;2023-02-15T13:36:48;12.07;;;10.87;;
2259;SDS011;333;48.800;9.530;2023-02-15T13:39:20;13.13;;;11.97;;
2259;SDS011;333;48.800;9.530;2023-02-15T13:41:51;12.73;;;11.53;;
2259;SDS011;333;48.800;9.530;2023-02-15T13:44:21;13.07;;;11.37;;
2259;SDS011;333;48.800;9.530;2023-02-15T13:46:56;14.20;;;10.70;;
2259;SDS011;333;48.800;9.530;2023-02-15T13:49:31;13.87;;;12.47;;
2259;SDS011;333;48.800;9.530;2023-02-15T13:52:03;14.00;;;12.70;;
2259;SDS011;333;48.800;9.530;2023-02-15T13:54:36;14.70;;;13.40;;
2259;SDS011;333;48.800;9.530;2023-02-15T13:57:14;13.77;;;12.40;;
2259;SDS011;333;48.800;9.530;2023-02-15T13:59:52;15.40;;;13.77;;
2259;SDS011;333;48.800;9.530;2023-02-15T14:02:37;15.13;;;13.50;;
2259;SDS011;333;48.800;9.530;2023-02-15T14:05:09;14.03;;;12.37;;
2259;SDS011;333;48.800;9.530;2023-02-15T14:07:47;13.50;;;12.17;;
2259;SDS011;333;48.800;9.530;2023-02-15T14:10:28;13.97;;;12.57;;
2259;SDS011;333;48.800;9.530;2023-02-15T14:13:02;13.73;;;12.30;;
2259;SDS011;333;48.800;9.530;2023-02-15T14:15:34;12.93;;;11.67;;
2259;SDS011;333;48.800;9.530;2023-02-15T14:18:12;14.17;;;12.77;;
2259;SDS011;333;48.800;9.530;2023-02-15T14:20:47;13.17;;;11.97;;
2259;SDS011;333;48.800;9.530;2023-02-15T14:23:23;12.40;;;11.30;;
2259;SDS011;333;48.800;9.530;2023-02-15T14:25:56;12.90;;;11.60;;
2259;SDS011;333;48.800;9.530;2023-02-15T14:28:30;11.73;;;10.63;;
2259;SDS011;333;48.800;9.530;2023-02-15T14:31:02;13.00;;;11.70;;
2259;SDS011;333;48.800;9.530;2023-02-15T14:33:32;12.80;;;11.60;;
2259;SDS011;333;48.800;9.530;2023-02-15T14:35:59;12.50;;;11.20;;
2259;SDS011;333;48.800;9.530;2023-02-15T14:38:33;10.93;;;9.93;;
2259;SDS011;333;48.800;9.530;2023-02-15T14:41:04;12.60;;;11.30;;
2259;SDS011;333;48.800;9.530;2023-02-15T14:43:45;12.00;;;10.90;;
2259;SDS011;333;48.800;9.530;2023-02-15T14:46:18;11.93;;;10.83;;
2259;SDS011;333;48.800;9.530;2023-02-15T14:48:47;10.80;;;9.80;;
2259;SDS011;333;48.800;9.530;2023-02-15T14:54:10;12.23;;;11.03;;
2259;SDS011;333;48.800;9.530;2023-02-15T14:56:38;12.63;;;11.53;;
2259;SDS011;333;48.800;9.530;2023-02-15T14:59:15;11.83;;;10.80;;
2259;SDS011;333;48.800;9.530;2023-02-15T15:01:51;13.10;;;11.90;;
2259;SDS011;333;48.800;9.530;2023-02-15T15:04:24;13.07;;;11.77;;
2259;SDS011;333;48.800;9.530;2023-02-15T15:06:57;12.27;;;11.17;;
2259;SDS011;333;48.800;9.530;2023-02-15T15:09:28;14.17;;;11.33;;
2259;SDS011;333;48.800;9.530;2023-02-15T15:12:01;15.60;;;11.83;;
2259;SDS011;333;48.800;9.530;2023-02-15T15:14:40;13.23;;;11.87;;
2259;SDS011;333;48.800;9.530;2023-02-15T15:17:12;12.10;;;11.00;;
2259;SDS011;333;48.800;9.530;2023-02-15T15:22:38;12.40;;;11.27;;
2259;SDS011;333;48.800;9.530;2023-02-15T15:25:11;12.37;;;11.20;;
2259;SDS011;333;48.800;9.530;2023-02-15T15:27:50;13.37;;;12.03;;
2259;SDS011;333;48.800;9.530;2023-02-15T15:33:09;16.20;;;14.00;;
2259;SDS011;333;48.800;9.530;2023-02-15T15:35:43;15.97;;;12.77;;
2259;SDS011;333;48.800;9.530;2023-02-15T15:38:22;14.60;;;13.10;;
2259;SDS011;333;48.800;9.530;2023-02-15T15:41:04;13.20;;;11.90;;
2259;SDS011;333;48.800;9.530;2023-02-15T15:49:15;14.87;;;13.47;;
2259;SDS011;333;48.800;9.530;2023-02-15T15:51:43;15.10;;;13.70;;
2259;SDS011;333;48.800;9.530;2023-02-15T15:54:12;15.27;;;13.73;;
2259;SDS011;333;48.800;9.530;2023-02-15T15:56:43;15.43;;;13.90;;
2259;SDS011;333;48.800;9.530;2023-02-15T15:59:12;15.23;;;13.53;;